createdAt,value
2023-02-17T00:01:17.518Z,113.03
2023-02-17T00:03:49.152Z,114.83
2023-02-17T00:06:24.026Z,109.27
2023-02-17T00:08:56.797Z,109.00
2023-02-17T00:11:29.449Z,112.50
2023-02-17T00:14:01.266Z,107.20
2023-02-17T00:16:33.434Z,107.57
2023-02-17T00:19:25.233Z,103.67
2023-02-17T00:21:58.438Z,110.27
2023-02-17T00:24:33.146Z,112.53
2023-02-17T00:27:04.594Z,111.77
2023-02-17T00:29:36.439Z,111.70
2023-02-17T00:32:08.242Z,109.40
2023-02-17T00:34:39.655Z,112.53
2023-02-17T00:37:10.919Z,108.17
2023-02-17T00:39:43.614Z,110.17
2023-02-17T00:42:14.948Z,108.93
2023-02-17T00:44:46.211Z,116.37
2023-02-17T00:47:17.426Z,116.23
2023-02-17T00:49:48.959Z,109.80
2023-02-17T00:52:20.217Z,109.87
2023-02-17T00:54:52.509Z,107.37
2023-02-17T00:57:23.743Z,114.60
2023-02-17T00:59:54.993Z,110.10
2023-02-17T01:02:26.556Z,109.77
2023-02-17T01:04:57.774Z,104.47
2023-02-17T01:07:29.306Z,105.37
2023-02-17T01:10:02.374Z,105.87
2023-02-17T01:12:33.970Z,102.33
2023-02-17T01:15:05.443Z,101.27
2023-02-17T01:17:36.924Z,101.30
2023-02-17T01:20:09.565Z,102.87
2023-02-17T01:22:41.946Z,104.00
2023-02-17T01:25:14.686Z,100.03
2023-02-17T01:27:46.041Z,103.77
2023-02-17T01:30:17.846Z,101.63
2023-02-17T01:32:49.344Z,105.20
2023-02-17T01:35:20.478Z,102.17
2023-02-17T01:37:51.785Z,102.80
2023-02-17T01:40:24.627Z,101.57
2023-02-17T01:42:55.612Z,102.77
2023-02-17T01:45:46.908Z,106.83
2023-02-17T01:48:19.947Z,102.83
2023-02-17T01:50:54.559Z,103.37
2023-02-17T01:53:28.506Z,108.67
2023-02-17T01:56:00.957Z,102.90
2023-02-17T01:58:32.946Z,105.27
2023-02-17T02:01:07.101Z,106.87
2023-02-17T02:03:39.989Z,104.43
2023-02-17T02:06:15.534Z,104.03
2023-02-17T02:08:54.462Z,107.77
2023-02-17T02:11:27.684Z,111.33
2023-02-17T02:13:59.107Z,106.30
2023-02-17T02:16:33.821Z,107.83
2023-02-17T02:19:11.387Z,103.40
2023-02-17T02:22:09.545Z,103.33
2023-02-17T02:24:50.348Z,100.50
2023-02-17T02:27:42.692Z,104.07
2023-02-17T02:30:46.089Z,102.27
2023-02-17T02:33:29.810Z,105.53
2023-02-17T02:36:06.058Z,100.73
2023-02-17T02:38:41.404Z,103.63
2023-02-17T02:41:15.232Z,107.03
2023-02-17T02:43:46.859Z,106.60
2023-02-17T02:46:18.042Z,105.53
2023-02-17T02:48:50.988Z,98.37
2023-02-17T02:51:35.751Z,104.83
2023-02-17T02:54:34.284Z,103.67
2023-02-17T02:57:21.594Z,103.13
2023-02-17T03:00:05.564Z,106.00
2023-02-17T03:02:43.691Z,99.63
2023-02-17T03:05:19.830Z,103.53
2023-02-17T03:07:55.382Z,102.23
2023-02-17T03:10:26.622Z,103.00
2023-02-17T03:12:58.084Z,102.43
2023-02-17T03:15:31.806Z,99.73
2023-02-17T03:18:03.661Z,97.83
2023-02-17T03:20:39.983Z,99.47
2023-02-17T03:23:11.898Z,97.80
2023-02-17T03:25:46.018Z,97.97
2023-02-17T03:28:17.652Z,99.07
2023-02-17T03:30:49.124Z,98.50
2023-02-17T03:33:20.221Z,99.30
2023-02-17T03:35:53.438Z,99.50
2023-02-17T03:38:24.637Z,101.10
2023-02-17T03:40:55.806Z,98.27
2023-02-17T03:43:27.915Z,100.77
2023-02-17T03:45:59.008Z,101.27
2023-02-17T03:48:30.358Z,98.23
2023-02-17T03:51:03.028Z,102.47
2023-02-17T03:53:34.193Z,102.67
2023-02-17T03:56:05.582Z,102.93
2023-02-17T03:58:37.610Z,102.07
2023-02-17T04:01:09.443Z,100.60
2023-02-17T04:03:41.721Z,104.70
2023-02-17T04:06:14.763Z,99.97
2023-02-17T04:08:45.909Z,100.33
2023-02-17T04:11:16.966Z,99.00
2023-02-17T04:13:47.979Z,103.33
2023-02-17T04:16:19.031Z,96.13
2023-02-17T04:18:50.103Z,102.77
2023-02-17T04:21:22.506Z,105.40
2023-02-17T04:23:55.538Z,109.00
2023-02-17T04:26:27.474Z,105.30
2023-02-17T04:28:58.628Z,109.53
2023-02-17T04:31:29.863Z,106.17
2023-02-17T04:34:01.325Z,102.03
2023-02-17T04:36:33.952Z,103.23
2023-02-17T04:39:05.281Z,106.00
2023-02-17T04:41:36.273Z,102.77
2023-02-17T04:44:07.808Z,105.03
2023-02-17T04:46:38.990Z,100.37
2023-02-17T04:49:14.342Z,106.07
2023-02-17T04:51:47.216Z,101.47
2023-02-17T04:54:18.784Z,103.37
2023-02-17T04:56:50.109Z,101.57
2023-02-17T04:59:21.349Z,104.33
2023-02-17T05:01:52.802Z,102.47
2023-02-17T05:04:24.212Z,106.57
2023-02-17T05:06:57.036Z,102.27
2023-02-17T05:09:28.612Z,100.90
2023-02-17T05:12:00.140Z,104.97
2023-02-17T05:14:31.810Z,107.23
2023-02-17T05:17:02.886Z,101.13
2023-02-17T05:19:34.166Z,100.77
2023-02-17T05:22:06.661Z,100.33
2023-02-17T05:24:39.001Z,97.00
2023-02-17T05:27:10.764Z,97.67
2023-02-17T05:29:42.624Z,101.03
2023-02-17T05:32:14.044Z,95.27
2023-02-17T05:34:45.509Z,101.30
2023-02-17T05:40:04.774Z,99.70
2023-02-17T05:42:35.794Z,98.13
2023-02-17T05:45:07.055Z,100.80
2023-02-17T05:47:38.738Z,104.80
2023-02-17T05:50:11.200Z,104.63
2023-02-17T05:52:42.586Z,102.30
2023-02-17T05:55:15.155Z,102.80
2023-02-17T05:57:46.769Z,110.13
2023-02-17T06:00:19.121Z,105.60
2023-02-17T06:02:50.756Z,103.77
2023-02-17T06:05:22.074Z,100.53
2023-02-17T06:07:53.275Z,103.47
2023-02-17T06:10:26.638Z,100.57
2023-02-17T06:12:57.913Z,103.13
2023-02-17T06:15:30.842Z,99.27
2023-02-17T06:18:02.071Z,97.00
2023-02-17T06:20:33.618Z,101.10
2023-02-17T06:23:04.995Z,96.30
2023-02-17T06:25:38.031Z,91.57
2023-02-17T06:28:09.187Z,95.40
2023-02-17T06:30:40.531Z,101.73
2023-02-17T06:33:12.184Z,96.83
2023-02-17T06:35:45.482Z,94.30
2023-02-17T06:38:17.050Z,95.97
2023-02-17T06:40:49.784Z,95.87
2023-02-17T06:43:21.784Z,95.67
2023-02-17T06:45:53.670Z,97.67
2023-02-17T06:48:25.063Z,100.90
2023-02-17T06:50:56.464Z,107.87
2023-02-17T06:53:27.874Z,102.70
2023-02-17T06:56:00.457Z,105.37
2023-02-17T06:58:32.434Z,108.50
2023-02-17T07:01:03.550Z,107.17
2023-02-17T07:03:34.939Z,110.83
2023-02-17T07:06:06.703Z,106.70
2023-02-17T07:08:38.095Z,108.70
2023-02-17T07:11:11.846Z,112.63
2023-02-17T07:13:43.811Z,111.77
2023-02-17T07:16:16.660Z,106.93
2023-02-17T07:18:48.451Z,112.90
2023-02-17T07:21:20.112Z,114.63
2023-02-17T07:23:51.273Z,112.70
2023-02-17T07:26:23.679Z,112.00
2023-02-17T07:28:55.203Z,122.23
2023-02-17T07:31:26.649Z,118.50
2023-02-17T07:33:58.145Z,116.47
2023-02-17T07:36:29.085Z,115.20
2023-02-17T07:39:01.080Z,111.50
2023-02-17T07:41:34.676Z,113.53
2023-02-17T07:44:05.870Z,112.70
2023-02-17T07:46:37.365Z,108.77
2023-02-17T07:49:08.851Z,110.50
2023-02-17T07:51:40.519Z,113.97
2023-02-17T07:54:14.280Z,117.10
2023-02-17T07:56:47.451Z,114.70
2023-02-17T07:59:18.590Z,123.80
2023-02-17T08:01:50.878Z,118.03
2023-02-17T08:04:22.465Z,121.87
2023-02-17T08:06:53.744Z,119.67
2023-02-17T08:09:41.158Z,120.57
2023-02-17T08:12:34.921Z,121.53
2023-02-17T08:15:06.485Z,115.27
2023-02-17T08:17:37.846Z,124.70
2023-02-17T08:20:10.557Z,128.97
2023-02-17T08:22:41.702Z,136.33
2023-02-17T08:25:12.811Z,131.63
2023-02-17T08:28:01.229Z,135.57
2023-02-17T08:30:32.453Z,127.43
2023-02-17T08:33:04.274Z,133.13
2023-02-17T08:35:35.154Z,132.80
2023-02-17T08:38:06.661Z,129.07
2023-02-17T08:40:37.813Z,122.67
2023-02-17T08:43:12.260Z,124.70
2023-02-17T08:45:43.562Z,116.10
2023-02-17T08:48:15.141Z,116.93
2023-02-17T08:50:46.622Z,120.00
2023-02-17T08:53:17.996Z,112.47
2023-02-17T08:55:49.956Z,113.60
2023-02-17T08:58:22.813Z,109.20
2023-02-17T09:00:54.509Z,111.07
2023-02-17T09:03:25.910Z,116.33
2023-02-17T09:05:57.593Z,117.63
2023-02-17T09:08:29.455Z,109.27
2023-02-17T09:11:01.078Z,114.30
2023-02-17T09:13:33.974Z,108.87
2023-02-17T09:16:06.030Z,111.50
2023-02-17T09:18:37.396Z,112.73
2023-02-17T09:21:10.453Z,108.03
2023-02-17T09:23:41.542Z,104.80
2023-02-17T09:26:14.653Z,99.40
2023-02-17T09:28:47.629Z,101.90
2023-02-17T09:31:22.145Z,99.20
2023-02-17T09:33:53.785Z,98.70
2023-02-17T09:36:26.180Z,92.37
2023-02-17T09:38:58.301Z,96.67
2023-02-17T09:41:32.867Z,95.43
2023-02-17T09:44:05.699Z,87.50
2023-02-17T09:47:00.598Z,88.87
2023-02-17T09:49:38.912Z,84.73
2023-02-17T09:52:17.084Z,88.60
2023-02-17T09:54:55.726Z,83.60
2023-02-17T09:57:28.760Z,77.40
2023-02-17T10:00:07.186Z,84.37
2023-02-17T10:02:43.924Z,81.07
2023-02-17T10:05:21.301Z,82.47
2023-02-17T10:07:56.138Z,86.37
2023-02-17T10:10:29.935Z,79.60
2023-02-17T10:13:03.795Z,82.03
2023-02-17T10:15:40.056Z,88.20
2023-02-17T10:18:15.760Z,78.67
2023-02-17T10:20:51.034Z,85.43
2023-02-17T10:23:27.084Z,82.83
2023-02-17T10:26:11.064Z,80.13
2023-02-17T10:28:50.679Z,76.90
2023-02-17T10:31:32.474Z,75.67
2023-02-17T10:34:06.521Z,73.10
2023-02-17T10:36:45.737Z,73.43
2023-02-17T10:39:18.611Z,76.93
2023-02-17T10:41:51.511Z,76.27
2023-02-17T10:44:25.584Z,75.27
2023-02-17T10:46:58.606Z,72.57
2023-02-17T10:49:32.288Z,78.47
2023-02-17T10:52:05.125Z,77.37
2023-02-17T10:54:39.518Z,76.87
2023-02-17T10:57:30.320Z,73.80
2023-02-17T11:00:02.279Z,78.10
2023-02-17T11:02:39.232Z,80.43
2023-02-17T11:05:11.196Z,79.33
2023-02-17T11:07:43.950Z,81.17
2023-02-17T11:10:25.497Z,77.10
2023-02-17T11:12:59.150Z,78.07
2023-02-17T11:15:33.334Z,85.93
2023-02-17T11:18:13.423Z,83.43
2023-02-17T11:20:44.793Z,80.67
2023-02-17T11:23:27.661Z,85.27
2023-02-17T11:26:12.303Z,81.50
2023-02-17T11:28:40.118Z,77.23
2023-02-17T11:31:09.397Z,79.73
2023-02-17T11:33:40.494Z,82.43
2023-02-17T11:36:13.646Z,82.70
2023-02-17T11:38:46.598Z,80.00
2023-02-17T11:41:14.947Z,81.47
2023-02-17T11:43:53.322Z,82.13
2023-02-17T11:46:28.123Z,82.03
2023-02-17T11:49:35.279Z,77.10
2023-02-17T11:52:13.546Z,80.43
2023-02-17T11:54:52.702Z,82.30
2023-02-17T11:57:31.333Z,80.13
2023-02-17T12:00:07.201Z,85.40
2023-02-17T12:03:02.932Z,85.13
2023-02-17T12:05:38.641Z,79.47
2023-02-17T12:08:19.689Z,76.67
2023-02-17T12:10:59.904Z,74.07
2023-02-17T12:13:39.396Z,74.57
2023-02-17T12:16:16.160Z,76.43
2023-02-17T12:18:52.133Z,73.57
2023-02-17T12:21:28.325Z,74.50
2023-02-17T12:24:32.360Z,76.60
2023-02-17T12:27:06.660Z,71.27
2023-02-17T12:29:50.824Z,72.33
2023-02-17T12:32:28.533Z,72.87
2023-02-17T12:34:59.340Z,72.00
2023-02-17T12:37:29.998Z,73.00
2023-02-17T12:40:01.937Z,72.63
2023-02-17T12:42:33.460Z,69.97
2023-02-17T12:45:04.999Z,70.77
2023-02-17T12:47:38.836Z,67.43
2023-02-17T12:50:12.171Z,69.63
2023-02-17T12:52:42.382Z,68.73
2023-02-17T13:02:30.826Z,65.50
2023-02-17T13:05:03.053Z,70.27
2023-02-17T13:07:44.700Z,76.00
2023-02-17T13:10:31.556Z,70.20
2023-02-17T13:13:02.519Z,76.97
2023-02-17T13:15:36.244Z,70.03
2023-02-17T13:18:10.363Z,74.07
2023-02-17T13:21:01.523Z,71.87
2023-02-17T13:23:40.996Z,69.83
2023-02-17T13:26:25.886Z,69.23
2023-02-17T13:29:26.503Z,68.47
2023-02-17T13:35:44.967Z,62.30
2023-02-17T13:40:47.984Z,66.93
2023-02-17T13:43:17.996Z,71.30
2023-02-17T13:45:49.998Z,68.93
2023-02-17T13:48:25.491Z,72.57
2023-02-17T13:50:58.218Z,71.53
2023-02-17T13:54:50.220Z,71.07
2023-02-17T14:01:37.258Z,64.10
2023-02-17T14:07:59.539Z,75.17
2023-02-17T14:10:28.325Z,69.40
2023-02-17T14:12:56.822Z,70.47
2023-02-17T14:15:26.512Z,65.73
2023-02-17T14:17:56.110Z,67.80
2023-02-17T14:20:32.199Z,67.70
2023-02-17T14:23:06.218Z,67.27
2023-02-17T14:25:39.324Z,68.40
2023-02-17T14:28:19.387Z,67.47
2023-02-17T15:03:53.696Z,62.43
2023-02-17T15:06:26.485Z,63.03
2023-02-17T15:08:55.793Z,68.33
2023-02-17T15:11:28.944Z,67.10
2023-02-17T15:13:56.812Z,68.03
2023-02-17T15:16:24.669Z,68.63
2023-02-17T15:18:53.951Z,68.53
2023-02-17T15:21:26.600Z,71.73
2023-02-17T15:23:54.963Z,73.83
2023-02-17T15:26:22.900Z,73.10
2023-02-17T15:28:50.690Z,75.90
2023-02-17T15:31:20.828Z,74.60
2023-02-17T15:33:56.757Z,75.57
2023-02-17T15:36:25.128Z,74.50
2023-02-17T15:38:53.153Z,76.53
2023-02-17T15:41:22.705Z,73.50
2023-02-17T15:43:51.285Z,73.40
2023-02-17T15:46:20.392Z,78.50
2023-02-17T15:48:49.927Z,76.90
2023-02-17T15:51:20.322Z,79.13
2023-02-17T15:53:48.375Z,78.07
2023-02-17T15:56:19.642Z,78.67
2023-02-17T15:58:48.804Z,80.73
2023-02-17T16:01:19.782Z,77.13
2023-02-17T16:03:47.570Z,77.23
2023-02-17T16:06:15.289Z,79.70
2023-02-17T16:08:44.630Z,76.93
2023-02-17T16:11:13.516Z,78.53
2023-02-17T16:13:41.658Z,78.37
2023-02-17T16:16:17.352Z,77.13
2023-02-17T16:18:45.167Z,79.93
2023-02-17T16:21:14.152Z,78.83
2023-02-17T16:23:42.222Z,81.97
2023-02-17T16:26:16.711Z,83.50
2023-02-17T16:28:45.726Z,85.17
2023-02-17T16:31:13.565Z,78.63
2023-02-17T16:33:41.445Z,82.63
2023-02-17T16:36:15.080Z,80.37
2023-02-17T16:38:43.254Z,80.40
2023-02-17T16:41:15.495Z,91.03
2023-02-17T16:43:43.770Z,84.40
2023-02-17T16:46:21.606Z,82.50
2023-02-17T16:48:53.201Z,86.40
2023-02-17T16:51:24.172Z,87.80
2023-02-17T16:53:55.562Z,92.73
2023-02-17T16:56:31.325Z,87.47
2023-02-17T16:59:03.166Z,93.43
2023-02-17T17:01:34.731Z,91.33
2023-02-17T17:04:06.535Z,87.73
2023-02-17T17:06:39.102Z,85.10
2023-02-17T17:09:10.908Z,88.90
2023-02-17T17:11:44.161Z,92.63
2023-02-17T17:14:15.671Z,90.20
2023-02-17T17:16:50.643Z,87.60
2023-02-17T17:19:22.378Z,82.20
2023-02-17T17:21:53.670Z,90.73
2023-02-17T17:24:25.242Z,88.13
2023-02-17T17:26:58.220Z,87.30
2023-02-17T17:29:29.798Z,92.00
2023-02-17T17:32:01.655Z,86.90
2023-02-17T17:34:32.881Z,88.57
2023-02-17T18:24:51.410Z,68.53
2023-02-17T18:27:19.249Z,70.50
2023-02-17T18:29:47.106Z,74.03
2023-02-17T18:32:14.915Z,82.90
2023-02-17T18:34:42.721Z,79.37
2023-02-17T18:37:10.500Z,81.00
2023-02-17T18:39:38.247Z,85.33
2023-02-17T18:42:07.645Z,80.17
2023-02-17T18:44:35.420Z,83.03
2023-02-17T18:47:03.195Z,83.90
2023-02-17T18:49:31.229Z,83.07
2023-02-17T18:51:58.951Z,82.97
2023-02-17T18:54:26.702Z,83.07
2023-02-17T18:56:54.455Z,87.03
2023-02-17T18:59:23.649Z,87.53
2023-02-17T19:01:51.518Z,82.33
2023-02-17T19:04:19.331Z,92.77
2023-02-17T19:06:47.055Z,86.53
2023-02-17T19:09:14.879Z,92.97
2023-02-17T19:11:42.681Z,87.73
2023-02-17T19:30:05.761Z,76.03
2023-02-17T19:32:33.520Z,75.57
2023-02-17T19:35:01.336Z,77.00
2023-02-17T19:37:29.208Z,76.07
2023-02-17T19:39:57.060Z,74.33
2023-02-17T19:42:25.256Z,74.37
2023-02-17T19:44:53.086Z,75.90
2023-02-17T19:47:22.476Z,82.77
2023-02-17T19:49:50.219Z,82.10
2023-02-17T19:52:18.109Z,80.87
2023-02-17T19:54:45.915Z,80.67
2023-02-17T19:57:17.279Z,83.87
2023-02-17T19:59:45.475Z,85.43
2023-02-17T20:02:14.794Z,87.93
2023-02-17T20:04:44.662Z,84.07
2023-02-17T20:07:12.555Z,80.43
2023-02-17T20:09:40.388Z,79.53
2023-02-17T20:12:08.776Z,74.73
2023-02-17T20:14:36.593Z,77.03
2023-02-17T20:17:04.854Z,77.13
2023-02-17T20:19:32.684Z,76.73
2023-02-17T20:22:02.207Z,79.73
2023-02-17T20:24:29.968Z,80.17
2023-02-17T20:26:57.786Z,81.17
2023-02-17T20:29:25.633Z,83.87
2023-02-17T20:31:53.597Z,84.43
2023-02-17T20:34:27.569Z,83.77
2023-02-17T20:36:55.819Z,89.37
2023-02-17T20:39:25.816Z,91.50
2023-02-17T20:41:53.755Z,87.97
2023-02-17T20:44:21.649Z,94.47
2023-02-17T20:46:49.524Z,91.80
2023-02-17T20:49:17.544Z,90.07
2023-02-17T20:51:45.315Z,85.50
2023-02-17T20:54:13.143Z,91.70
2023-02-17T20:56:43.778Z,87.67
2023-02-17T20:59:13.232Z,84.37
2023-02-17T21:01:41.521Z,82.77
2023-02-17T21:04:09.444Z,85.27
2023-02-17T21:06:39.656Z,82.90
2023-02-17T21:09:09.019Z,85.37
2023-02-17T21:11:36.810Z,84.47
2023-02-17T21:14:05.926Z,74.23
2023-02-17T21:16:34.350Z,78.50
2023-02-17T21:19:02.597Z,78.80
2023-02-17T21:21:30.714Z,73.07
2023-02-17T21:23:59.096Z,77.30
2023-02-17T21:26:27.544Z,73.80
2023-02-17T21:28:55.779Z,74.73
2023-02-17T21:31:27.013Z,75.00
2023-02-17T21:33:54.916Z,70.60
2023-02-17T21:36:22.755Z,71.87
2023-02-17T21:38:50.554Z,75.60
2023-02-17T21:41:21.430Z,68.07
2023-02-17T21:44:07.269Z,66.50
2023-02-17T21:46:37.411Z,70.90
2023-02-17T21:49:05.637Z,68.67
2023-02-17T21:51:33.600Z,62.07
2023-02-17T21:54:01.400Z,65.83
2023-02-17T21:56:29.253Z,62.70
2023-02-17T21:58:57.999Z,63.13
2023-02-17T22:01:27.436Z,64.07
2023-02-17T22:03:57.776Z,65.63
2023-02-17T22:06:27.877Z,63.93
2023-02-17T22:08:55.710Z,62.33
2023-02-17T22:11:25.801Z,67.10
2023-02-17T22:13:55.457Z,68.00
2023-02-17T22:16:23.641Z,67.63
2023-02-17T22:18:51.721Z,68.23
2023-02-17T22:21:20.925Z,69.10
2023-02-17T22:23:49.087Z,68.07
2023-02-17T22:26:18.511Z,64.47
2023-02-17T22:28:46.822Z,68.47
2023-02-17T22:31:15.800Z,69.33
2023-02-17T22:33:44.246Z,71.33
2023-02-17T22:36:14.469Z,71.90
2023-02-17T22:41:29.665Z,67.63
2023-02-17T22:43:57.438Z,71.43
2023-02-17T22:46:27.248Z,67.13
2023-02-17T22:48:56.554Z,70.57
2023-02-17T22:51:26.185Z,71.80
2023-02-17T22:53:54.139Z,73.97
2023-02-17T22:56:22.221Z,70.47
2023-02-17T22:58:55.737Z,74.60
2023-02-17T23:01:24.007Z,74.10
2023-02-17T23:03:54.425Z,76.43
2023-02-17T23:06:24.790Z,73.57
2023-02-17T23:08:52.963Z,69.07
2023-02-17T23:11:43.462Z,77.83
2023-02-17T23:14:13.910Z,76.23
2023-02-17T23:16:41.810Z,77.17
2023-02-17T23:19:11.226Z,79.80
2023-02-17T23:21:40.665Z,78.10
2023-02-17T23:24:08.754Z,82.20
2023-02-17T23:26:36.641Z,87.20
2023-02-17T23:29:04.575Z,85.17
2023-02-17T23:31:34.300Z,82.37
2023-02-17T23:34:02.069Z,85.20
2023-02-17T23:36:29.835Z,83.27
2023-02-17T23:41:32.798Z,92.73
2023-02-17T23:44:00.565Z,94.00
2023-02-17T23:46:29.733Z,94.00
2023-02-17T23:48:59.985Z,91.80
2023-02-17T23:51:27.790Z,98.10
2023-02-17T23:53:55.680Z,94.97
2023-02-17T23:56:26.486Z,93.93
2023-02-17T23:58:54.814Z,93.87
